createdAt,value
2022-12-03T00:00:13.134Z,100.00
2022-12-03T00:02:40.680Z,100.00
2022-12-03T00:05:07.283Z,100.00
2022-12-03T00:07:34.535Z,100.00
2022-12-03T00:10:01.102Z,100.00
2022-12-03T00:12:27.439Z,100.00
2022-12-03T00:14:53.927Z,100.00
2022-12-03T00:17:20.772Z,100.00
2022-12-03T00:19:47.040Z,100.00
2022-12-03T00:22:13.339Z,100.00
2022-12-03T00:24:39.889Z,100.00
2022-12-03T00:27:06.222Z,100.00
2022-12-03T00:29:32.628Z,100.00
2022-12-03T00:31:59.271Z,100.00
2022-12-03T00:34:25.577Z,100.00
2022-12-03T00:36:51.864Z,100.00
2022-12-03T00:39:18.499Z,100.00
2022-12-03T00:41:44.787Z,100.00
2022-12-03T00:44:12.145Z,100.00
2022-12-03T00:46:38.813Z,100.00
2022-12-03T00:49:05.648Z,100.00
2022-12-03T00:51:31.907Z,100.00
2022-12-03T00:53:58.510Z,100.00
2022-12-03T00:56:25.074Z,100.00
2022-12-03T00:58:51.442Z,100.00
2022-12-03T01:01:18.132Z,100.00
2022-12-03T01:03:44.516Z,100.00
2022-12-03T01:06:10.787Z,100.00
2022-12-03T01:08:37.378Z,100.00
2022-12-03T01:11:03.690Z,100.00
2022-12-03T01:13:29.961Z,100.00
2022-12-03T01:15:56.569Z,100.00
2022-12-03T01:18:22.878Z,100.00
2022-12-03T01:20:49.208Z,100.00
2022-12-03T01:23:15.779Z,100.00
2022-12-03T01:25:42.177Z,100.00
2022-12-03T01:28:08.475Z,100.00
2022-12-03T01:30:55.035Z,100.00
2022-12-03T01:33:21.380Z,100.00
2022-12-03T01:35:47.940Z,100.00
2022-12-03T01:38:14.235Z,100.00
2022-12-03T01:40:40.601Z,100.00
2022-12-03T01:43:07.156Z,100.00
2022-12-03T01:45:33.474Z,100.00
2022-12-03T01:47:59.853Z,100.00
2022-12-03T01:50:33.343Z,100.00
2022-12-03T01:53:02.071Z,100.00
2022-12-03T01:55:28.801Z,100.00
2022-12-03T01:57:57.782Z,100.00
2022-12-03T02:00:27.282Z,100.00
2022-12-03T02:02:56.556Z,100.00
2022-12-03T02:05:25.210Z,100.00
2022-12-03T02:07:52.384Z,100.00
2022-12-03T02:10:23.962Z,100.00
2022-12-03T02:13:09.425Z,100.00
2022-12-03T02:15:36.817Z,100.00
2022-12-03T02:18:03.577Z,100.00
2022-12-03T02:20:31.551Z,100.00
2022-12-03T02:23:18.509Z,100.00
2022-12-03T02:25:45.073Z,100.00
2022-12-03T02:28:11.465Z,100.00
2022-12-03T02:30:37.864Z,100.00
2022-12-03T02:33:04.679Z,100.00
2022-12-03T02:35:33.695Z,100.00
2022-12-03T02:38:09.686Z,100.00
2022-12-03T02:40:36.574Z,100.00
2022-12-03T02:43:04.003Z,100.00
2022-12-03T02:45:36.573Z,100.00
2022-12-03T02:48:15.646Z,100.00
2022-12-03T02:50:46.560Z,100.00
2022-12-03T02:53:17.564Z,100.00
2022-12-03T02:55:44.106Z,100.00
2022-12-03T02:58:11.739Z,100.00
2022-12-03T03:00:38.563Z,100.00
2022-12-03T03:03:05.804Z,100.00
2022-12-03T03:05:33.572Z,100.00
2022-12-03T03:08:00.895Z,100.00
2022-12-03T03:10:27.595Z,100.00
2022-12-03T03:12:55.242Z,100.00
2022-12-03T03:15:22.793Z,100.00
2022-12-03T03:17:49.087Z,100.00
2022-12-03T03:20:15.517Z,100.00
2022-12-03T03:22:43.304Z,100.00
2022-12-03T03:25:12.822Z,100.00
2022-12-03T03:27:39.950Z,100.00
2022-12-03T03:30:08.076Z,100.00
2022-12-03T03:32:36.040Z,100.00
2022-12-03T03:35:02.687Z,100.00
2022-12-03T03:37:29.523Z,100.00
2022-12-03T03:39:55.978Z,100.00
2022-12-03T03:42:22.818Z,100.00
2022-12-03T03:44:49.746Z,100.00
2022-12-03T03:47:16.382Z,100.00
2022-12-03T03:49:42.937Z,100.00
2022-12-03T03:52:11.698Z,100.00
2022-12-03T03:54:39.058Z,100.00
2022-12-03T03:57:05.686Z,100.00
2022-12-03T03:59:32.316Z,100.00
2022-12-03T04:01:58.607Z,100.00
2022-12-03T04:04:34.437Z,100.00
2022-12-03T04:07:00.773Z,100.00
2022-12-03T04:09:27.391Z,100.00
2022-12-03T04:12:12.273Z,100.00
2022-12-03T04:14:38.847Z,100.00
2022-12-03T04:17:05.138Z,100.00
2022-12-03T04:19:31.383Z,100.00
2022-12-03T04:22:16.196Z,100.00
2022-12-03T04:24:43.129Z,100.00
2022-12-03T04:27:38.559Z,100.00
2022-12-03T04:30:05.286Z,100.00
2022-12-03T04:32:50.690Z,100.00
2022-12-03T04:35:35.577Z,100.00
2022-12-03T04:38:02.627Z,100.00
2022-12-03T04:40:47.261Z,100.00
2022-12-03T04:43:13.850Z,100.00
2022-12-03T04:45:40.169Z,100.00
2022-12-03T04:48:06.751Z,100.00
2022-12-03T04:50:33.345Z,100.00
2022-12-03T04:52:59.626Z,100.00
2022-12-03T04:55:25.934Z,100.00
2022-12-03T04:57:52.500Z,100.00
2022-12-03T05:00:19.013Z,100.00
2022-12-03T05:02:45.419Z,100.00
2022-12-03T05:05:12.047Z,100.00
2022-12-03T05:07:38.469Z,100.00
2022-12-03T05:10:05.789Z,100.00
2022-12-03T05:12:32.419Z,100.00
2022-12-03T05:14:59.483Z,100.00
2022-12-03T05:17:25.762Z,100.00
2022-12-03T05:20:10.903Z,100.00
2022-12-03T05:22:37.211Z,100.00
2022-12-03T05:25:04.282Z,100.00
2022-12-03T05:27:30.650Z,100.00
2022-12-03T05:29:56.960Z,100.00
2022-12-03T05:32:23.597Z,100.00
2022-12-03T05:34:49.933Z,100.00
2022-12-03T05:37:16.221Z,100.00
2022-12-03T05:39:42.882Z,100.00
2022-12-03T05:42:28.856Z,100.00
2022-12-03T05:44:56.022Z,100.00
2022-12-03T05:47:22.596Z,100.00
2022-12-03T05:49:48.898Z,100.00
2022-12-03T05:52:15.499Z,100.00
2022-12-03T05:54:41.805Z,100.00
2022-12-03T05:57:08.138Z,100.00
2022-12-03T05:59:34.720Z,100.00
2022-12-03T06:02:01.070Z,100.00
2022-12-03T06:04:27.714Z,100.00
2022-12-03T06:06:54.031Z,100.00
2022-12-03T06:09:20.293Z,100.00
2022-12-03T06:11:46.885Z,100.00
2022-12-03T06:14:13.181Z,100.00
2022-12-03T06:16:39.563Z,100.00
2022-12-03T06:19:06.215Z,100.00
2022-12-03T06:21:32.531Z,100.00
2022-12-03T06:23:59.976Z,100.00
2022-12-03T06:26:26.567Z,100.00
2022-12-03T06:28:52.840Z,100.00
2022-12-03T06:31:19.196Z,100.00
2022-12-03T06:33:45.830Z,100.00
2022-12-03T06:36:12.163Z,100.00
2022-12-03T06:38:38.545Z,100.00
2022-12-03T06:41:05.244Z,100.00
2022-12-03T06:43:31.492Z,100.00
2022-12-03T06:45:57.898Z,100.00
2022-12-03T06:48:25.629Z,100.00
2022-12-03T06:50:51.900Z,100.00
2022-12-03T06:53:18.193Z,100.00
2022-12-03T06:55:44.793Z,100.00
2022-12-03T06:58:11.052Z,100.00
2022-12-03T07:00:37.369Z,100.00
2022-12-03T07:03:04.017Z,100.00
2022-12-03T07:05:30.405Z,100.00
2022-12-03T07:07:57.132Z,100.00
2022-12-03T07:10:23.741Z,100.00
2022-12-03T07:12:50.052Z,100.00
2022-12-03T07:15:16.502Z,100.00
2022-12-03T07:17:43.088Z,100.00
2022-12-03T07:20:10.035Z,100.00
2022-12-03T07:22:36.420Z,100.00
2022-12-03T07:25:03.082Z,100.00
2022-12-03T07:27:29.339Z,100.00
2022-12-03T07:29:55.630Z,100.00
2022-12-03T07:32:22.175Z,100.00
2022-12-03T07:34:48.498Z,100.00
2022-12-03T07:37:18.656Z,100.00
2022-12-03T07:39:48.088Z,100.00
2022-12-03T07:42:14.338Z,100.00
2022-12-03T07:44:40.602Z,100.00
2022-12-03T07:47:07.206Z,100.00
2022-12-03T07:49:33.535Z,100.00
2022-12-03T07:51:59.813Z,100.00
2022-12-03T07:54:27.256Z,100.00
2022-12-03T07:56:59.527Z,100.00
2022-12-03T07:59:28.024Z,100.00
2022-12-03T08:01:54.381Z,100.00
2022-12-03T08:04:21.542Z,100.00
2022-12-03T08:06:48.174Z,100.00
2022-12-03T08:09:16.223Z,100.00
2022-12-03T08:11:48.370Z,100.00
2022-12-03T08:14:16.793Z,100.00
2022-12-03T08:16:44.993Z,100.00
2022-12-03T08:19:12.688Z,97.29
2022-12-03T08:21:39.668Z,95.53
2022-12-03T08:24:12.668Z,95.91
2022-12-03T08:26:39.154Z,91.85
2022-12-03T08:29:10.178Z,90.78
2022-12-03T08:31:36.665Z,85.14
2022-12-03T08:34:32.592Z,86.35
2022-12-03T08:37:01.799Z,83.37
2022-12-03T08:39:28.170Z,82.26
2022-12-03T08:42:23.220Z,79.68
2022-12-03T08:44:49.828Z,78.08
2022-12-03T08:47:21.717Z,79.63
2022-12-03T08:50:18.887Z,78.24
2022-12-03T08:52:46.261Z,77.91
2022-12-03T08:55:32.768Z,77.61
2022-12-03T08:57:59.690Z,72.96
2022-12-03T09:00:26.206Z,76.99
2022-12-03T09:03:00.122Z,76.48
2022-12-03T09:05:29.838Z,74.17
2022-12-03T09:07:56.233Z,73.13
2022-12-03T09:10:22.603Z,71.71
2022-12-03T09:12:49.160Z,72.91
2022-12-03T09:15:15.654Z,72.15
2022-12-03T09:17:41.938Z,68.33
2022-12-03T09:20:08.961Z,67.29
2022-12-03T09:22:35.244Z,68.21
2022-12-03T09:25:01.538Z,63.43
2022-12-03T09:27:28.107Z,63.38
2022-12-03T09:29:54.404Z,65.26
2022-12-03T09:32:20.903Z,64.04
2022-12-03T09:34:47.554Z,64.06
2022-12-03T09:37:13.843Z,62.32
2022-12-03T09:39:40.228Z,62.41
2022-12-03T09:42:06.826Z,60.81
2022-12-03T09:44:34.655Z,61.63
2022-12-03T09:47:02.327Z,62.28
2022-12-03T09:49:30.789Z,58.51
2022-12-03T09:51:57.753Z,60.42
2022-12-03T09:54:26.460Z,58.26
2022-12-03T09:56:54.584Z,59.67
2022-12-03T09:59:22.232Z,58.36
2022-12-03T10:01:48.703Z,59.93
2022-12-03T10:04:15.572Z,59.75
2022-12-03T10:06:45.818Z,60.51
2022-12-03T10:09:14.558Z,59.64
2022-12-03T10:11:41.190Z,61.07
2022-12-03T10:14:07.521Z,61.40
2022-12-03T10:16:36.032Z,60.84
2022-12-03T10:19:02.811Z,61.97
2022-12-03T10:21:35.151Z,61.23
2022-12-03T10:24:16.769Z,61.64
2022-12-03T10:26:44.409Z,61.68
2022-12-03T10:29:16.678Z,62.00
2022-12-03T10:31:43.251Z,61.96
2022-12-03T10:34:09.853Z,62.71
2022-12-03T10:36:36.319Z,62.59
2022-12-03T10:39:13.597Z,61.58
2022-12-03T10:41:41.306Z,61.40
2022-12-03T10:44:12.265Z,60.94
2022-12-03T10:46:38.753Z,60.60
2022-12-03T10:49:10.781Z,57.94
2022-12-03T10:51:38.741Z,57.75
2022-12-03T10:54:16.612Z,57.38
2022-12-03T10:56:44.158Z,56.40
2022-12-03T10:59:18.858Z,57.92
2022-12-03T11:01:45.764Z,58.59
2022-12-03T11:04:23.669Z,58.98
2022-12-03T11:06:50.684Z,61.08
2022-12-03T11:09:22.568Z,61.10
2022-12-03T11:11:49.460Z,64.94
2022-12-03T11:14:51.774Z,63.63
2022-12-03T11:17:47.741Z,63.83
2022-12-03T11:20:22.875Z,63.50
2022-12-03T11:22:51.116Z,64.51
2022-12-03T11:25:29.513Z,66.25
2022-12-03T11:28:13.908Z,68.44
2022-12-03T11:30:50.056Z,69.75
2022-12-03T11:33:30.594Z,68.32
2022-12-03T11:36:03.096Z,70.99
2022-12-03T11:38:38.498Z,71.55
2022-12-03T11:41:16.973Z,72.05
2022-12-03T11:43:53.142Z,72.56
2022-12-03T11:46:27.922Z,72.60
2022-12-03T11:48:56.083Z,71.79
2022-12-03T11:51:24.572Z,69.32
2022-12-03T11:53:52.770Z,69.59
2022-12-03T11:56:21.017Z,69.72
2022-12-03T11:58:47.736Z,69.51
2022-12-03T12:01:15.057Z,69.50
2022-12-03T12:03:43.001Z,70.92
2022-12-03T12:06:11.667Z,71.30
2022-12-03T12:08:41.085Z,72.10
2022-12-03T12:11:21.169Z,72.10
2022-12-03T12:13:51.242Z,72.44
2022-12-03T12:16:53.216Z,73.91
2022-12-03T12:19:34.469Z,73.00
2022-12-03T12:22:20.106Z,73.98
2022-12-03T12:24:51.792Z,74.83
2022-12-03T12:27:37.880Z,75.09
2022-12-03T12:30:12.707Z,76.22
2022-12-03T12:32:50.524Z,79.14
2022-12-03T12:35:21.051Z,79.40
2022-12-03T12:37:59.645Z,80.93
2022-12-03T12:40:29.448Z,81.48
2022-12-03T12:43:04.316Z,82.81
2022-12-03T12:45:41.547Z,83.40
2022-12-03T12:48:25.459Z,84.93
2022-12-03T12:51:09.496Z,85.38
2022-12-03T12:53:37.293Z,86.78
2022-12-03T12:56:22.133Z,86.55
2022-12-03T12:58:48.917Z,86.33
2022-12-03T13:01:26.245Z,87.03
2022-12-03T13:03:53.276Z,87.91
2022-12-03T13:06:23.983Z,87.67
2022-12-03T13:08:50.494Z,89.12
2022-12-03T13:11:41.357Z,90.55
2022-12-03T13:14:13.854Z,91.74
2022-12-03T13:16:40.740Z,92.64
2022-12-03T13:19:46.693Z,92.42
2022-12-03T13:22:18.952Z,92.45
2022-12-03T13:24:53.287Z,93.48
2022-12-03T13:27:19.776Z,93.65
2022-12-03T13:29:57.639Z,94.37
2022-12-03T13:32:44.536Z,94.20
2022-12-03T13:35:18.402Z,95.65
2022-12-03T13:37:45.014Z,96.31
2022-12-03T13:40:28.018Z,96.76
2022-12-03T13:42:55.178Z,97.59
2022-12-03T13:45:30.605Z,97.71
2022-12-03T13:48:00.480Z,98.12
2022-12-03T13:50:45.982Z,98.81
2022-12-03T13:53:23.294Z,99.77
2022-12-03T13:55:52.602Z,100.00
2022-12-03T13:58:19.317Z,100.00
2022-12-03T14:00:45.809Z,100.00
2022-12-03T14:03:15.008Z,100.00
2022-12-03T14:05:41.286Z,100.00
2022-12-03T14:08:08.213Z,100.00
2022-12-03T14:10:34.779Z,100.00
2022-12-03T14:13:01.038Z,100.00
2022-12-03T14:15:27.401Z,100.00
2022-12-03T14:17:54.177Z,100.00
2022-12-03T14:20:20.868Z,100.00
2022-12-03T14:22:47.194Z,100.00
2022-12-03T14:25:14.520Z,100.00
2022-12-03T14:27:40.926Z,100.00
2022-12-03T14:30:07.869Z,100.00
2022-12-03T14:32:34.511Z,100.00
2022-12-03T14:35:03.952Z,100.00
2022-12-03T14:37:34.856Z,100.00
2022-12-03T14:40:01.200Z,100.00
2022-12-03T14:42:27.519Z,100.00
2022-12-03T14:44:54.128Z,100.00
2022-12-03T14:47:24.670Z,100.00
2022-12-03T14:49:51.924Z,100.00
2022-12-03T14:52:18.976Z,100.00
2022-12-03T14:54:45.682Z,100.00
2022-12-03T14:57:13.191Z,100.00
2022-12-03T14:59:41.075Z,100.00
2022-12-03T15:02:07.814Z,100.00
2022-12-03T15:04:36.048Z,100.00
2022-12-03T15:07:02.684Z,100.00
2022-12-03T15:09:29.022Z,100.00
2022-12-03T15:11:55.333Z,100.00
2022-12-03T15:14:21.942Z,100.00
2022-12-03T15:16:48.354Z,100.00
2022-12-03T15:19:14.784Z,100.00
2022-12-03T15:21:41.371Z,100.00
2022-12-03T15:24:07.967Z,100.00
2022-12-03T15:26:34.274Z,100.00
2022-12-03T15:29:00.842Z,100.00
2022-12-03T15:31:27.215Z,100.00
2022-12-03T15:33:53.612Z,100.00
2022-12-03T15:36:20.219Z,100.00
2022-12-03T15:38:46.488Z,100.00
2022-12-03T15:41:21.846Z,100.00
2022-12-03T15:43:49.058Z,100.00
2022-12-03T15:46:15.538Z,100.00
2022-12-03T15:48:41.922Z,100.00
2022-12-03T15:51:08.539Z,100.00
2022-12-03T15:53:34.825Z,100.00
2022-12-03T15:56:01.104Z,100.00
2022-12-03T15:58:27.864Z,100.00
2022-12-03T16:00:54.176Z,100.00
2022-12-03T16:03:20.820Z,100.00
2022-12-03T16:05:47.191Z,100.00
2022-12-03T16:08:13.550Z,100.00
2022-12-03T16:10:40.199Z,100.00
2022-12-03T16:13:06.527Z,100.00
2022-12-03T16:15:32.965Z,100.00
2022-12-03T16:17:59.724Z,100.00
2022-12-03T16:20:26.013Z,100.00
2022-12-03T16:22:52.534Z,100.00
2022-12-03T16:25:19.283Z,100.00
2022-12-03T16:27:45.562Z,100.00
2022-12-03T16:30:12.274Z,100.00
2022-12-03T16:32:39.298Z,100.00
2022-12-03T16:35:06.147Z,100.00
2022-12-03T16:37:32.810Z,100.00
2022-12-03T16:39:59.435Z,100.00
2022-12-03T16:42:27.296Z,100.00
2022-12-03T16:45:08.807Z,100.00
2022-12-03T16:47:35.547Z,100.00
2022-12-03T16:50:03.437Z,100.00
2022-12-03T16:52:29.703Z,100.00
2022-12-03T16:54:56.256Z,100.00
2022-12-03T16:57:22.513Z,100.00
2022-12-03T16:59:48.846Z,100.00
2022-12-03T17:02:15.520Z,100.00
2022-12-03T17:04:42.730Z,100.00
2022-12-03T17:07:09.025Z,100.00
2022-12-03T17:09:35.627Z,100.00
2022-12-03T17:12:01.888Z,100.00
2022-12-03T17:14:33.053Z,100.00
2022-12-03T17:17:00.155Z,100.00
2022-12-03T17:19:26.449Z,100.00
2022-12-03T17:21:54.068Z,100.00
2022-12-03T17:24:21.475Z,100.00
2022-12-03T17:26:47.866Z,100.00
2022-12-03T17:29:14.354Z,100.00
2022-12-03T17:31:42.392Z,100.00
2022-12-03T17:34:09.084Z,100.00
2022-12-03T17:36:35.382Z,100.00
2022-12-03T17:39:01.933Z,100.00
2022-12-03T17:41:28.243Z,100.00
2022-12-03T17:43:54.561Z,100.00
2022-12-03T17:46:21.304Z,100.00
2022-12-03T17:48:47.707Z,100.00
2022-12-03T17:51:13.998Z,100.00
2022-12-03T17:53:40.581Z,100.00
2022-12-03T17:56:06.975Z,100.00
2022-12-03T17:58:33.409Z,100.00
2022-12-03T18:01:02.768Z,100.00
2022-12-03T18:03:30.637Z,100.00
2022-12-03T18:05:56.999Z,100.00
2022-12-03T18:08:23.443Z,100.00
2022-12-03T18:10:50.282Z,100.00
2022-12-03T18:13:16.613Z,100.00
2022-12-03T18:15:42.965Z,100.00
2022-12-03T18:18:09.597Z,100.00
2022-12-03T18:20:36.027Z,100.00
2022-12-03T18:23:02.534Z,100.00
2022-12-03T18:25:29.208Z,100.00
2022-12-03T18:27:55.691Z,100.00
2022-12-03T18:30:22.711Z,100.00
2022-12-03T18:32:49.732Z,100.00
2022-12-03T18:35:16.096Z,100.00
2022-12-03T18:37:42.403Z,100.00
2022-12-03T18:40:17.542Z,100.00
2022-12-03T18:42:43.993Z,100.00
2022-12-03T18:45:11.558Z,100.00
2022-12-03T18:47:37.930Z,100.00
2022-12-03T18:50:05.677Z,100.00
2022-12-03T18:52:32.234Z,100.00
2022-12-03T18:54:58.575Z,100.00
2022-12-03T18:57:24.845Z,100.00
2022-12-03T18:59:51.728Z,100.00
2022-12-03T19:05:08.412Z,100.00
2022-12-03T19:07:34.921Z,100.00
2022-12-03T19:10:01.247Z,100.00
2022-12-03T19:12:27.931Z,100.00
2022-12-03T19:14:54.227Z,100.00
2022-12-03T19:17:21.500Z,100.00
2022-12-03T19:19:48.119Z,100.00
2022-12-03T19:22:14.415Z,100.00
2022-12-03T19:24:40.685Z,100.00
2022-12-03T19:27:07.270Z,100.00
2022-12-03T19:29:33.535Z,100.00
2022-12-03T19:31:59.905Z,100.00
2022-12-03T19:34:26.876Z,100.00
2022-12-03T19:36:53.136Z,100.00
2022-12-03T19:39:19.433Z,100.00
2022-12-03T19:41:46.054Z,100.00
2022-12-03T19:44:14.442Z,100.00
2022-12-03T19:46:41.117Z,100.00
2022-12-03T19:49:07.757Z,100.00
2022-12-03T19:51:35.619Z,100.00
2022-12-03T19:54:06.477Z,100.00
2022-12-03T19:56:33.336Z,100.00
2022-12-03T19:58:59.744Z,100.00
2022-12-03T20:01:31.605Z,100.00
2022-12-03T20:03:59.926Z,100.00
2022-12-03T20:06:28.682Z,100.00
2022-12-03T20:08:56.735Z,100.00
2022-12-03T20:11:25.740Z,100.00
2022-12-03T20:13:55.194Z,100.00
2022-12-03T20:16:21.900Z,100.00
2022-12-03T20:18:49.361Z,100.00
2022-12-03T20:21:17.157Z,100.00
2022-12-03T20:23:43.570Z,100.00
2022-12-03T20:26:13.110Z,100.00
2022-12-03T20:28:40.006Z,100.00
2022-12-03T20:31:13.371Z,100.00
2022-12-03T20:33:42.017Z,100.00
2022-12-03T20:36:09.607Z,100.00
2022-12-03T20:38:36.805Z,100.00
2022-12-03T20:41:05.999Z,100.00
2022-12-03T20:43:32.621Z,100.00
2022-12-03T20:46:25.747Z,100.00
2022-12-03T20:48:54.065Z,100.00
2022-12-03T20:51:22.486Z,100.00
2022-12-03T20:53:48.864Z,100.00
2022-12-03T20:56:21.031Z,100.00
2022-12-03T20:58:49.030Z,100.00
2022-12-03T21:01:17.048Z,100.00
2022-12-03T21:03:44.296Z,100.00
2022-12-03T21:06:10.982Z,100.00
2022-12-03T21:08:42.452Z,100.00
2022-12-03T21:11:11.370Z,100.00
2022-12-03T21:13:41.243Z,100.00
2022-12-03T21:16:10.404Z,100.00
2022-12-03T21:18:37.062Z,100.00
2022-12-03T21:21:04.550Z,100.00
2022-12-03T21:23:31.545Z,100.00
2022-12-03T21:26:09.068Z,100.00
2022-12-03T21:28:35.822Z,100.00
2022-12-03T21:31:04.792Z,100.00
2022-12-03T21:33:31.962Z,100.00
2022-12-03T21:35:59.320Z,100.00
2022-12-03T21:38:26.600Z,100.00
2022-12-03T21:40:53.157Z,100.00
2022-12-03T21:43:19.853Z,100.00
2022-12-03T21:45:46.238Z,100.00
2022-12-03T21:48:13.264Z,100.00
2022-12-03T21:50:39.923Z,100.00
2022-12-03T21:53:06.577Z,100.00
2022-12-03T21:55:32.884Z,100.00
2022-12-03T21:57:59.434Z,100.00
2022-12-03T22:00:25.748Z,100.00
2022-12-03T22:02:52.474Z,100.00
2022-12-03T22:05:19.038Z,100.00
2022-12-03T22:07:45.380Z,100.00
2022-12-03T22:10:12.761Z,100.00
2022-12-03T22:12:40.888Z,100.00
2022-12-03T22:15:12.139Z,100.00
2022-12-03T22:17:41.603Z,100.00
2022-12-03T22:20:08.580Z,100.00
2022-12-03T22:22:34.851Z,100.00
2022-12-03T22:25:01.427Z,100.00
2022-12-03T22:27:27.767Z,100.00
2022-12-03T22:29:54.228Z,100.00
2022-12-03T22:32:21.049Z,100.00
2022-12-03T22:34:47.357Z,100.00
2022-12-03T22:37:13.659Z,100.00
2022-12-03T22:39:40.225Z,100.00
2022-12-03T22:42:06.587Z,100.00
2022-12-03T22:44:32.906Z,100.00
2022-12-03T22:46:59.583Z,100.00
2022-12-03T22:49:26.093Z,100.00
2022-12-03T22:51:52.387Z,100.00
2022-12-03T22:54:23.776Z,100.00
2022-12-03T22:56:50.458Z,100.00
2022-12-03T22:59:16.739Z,100.00
2022-12-03T23:01:43.348Z,100.00
2022-12-03T23:04:11.170Z,100.00
2022-12-03T23:06:38.085Z,100.00
2022-12-03T23:09:06.030Z,100.00
2022-12-03T23:11:32.694Z,100.00
2022-12-03T23:13:59.237Z,100.00
2022-12-03T23:16:28.892Z,100.00
2022-12-03T23:18:57.061Z,100.00
2022-12-03T23:21:29.262Z,100.00
2022-12-03T23:23:57.981Z,100.00
2022-12-03T23:26:24.282Z,100.00
2022-12-03T23:28:50.644Z,100.00
2022-12-03T23:31:22.013Z,100.00
2022-12-03T23:33:48.509Z,100.00
2022-12-03T23:36:15.311Z,100.00
2022-12-03T23:38:42.331Z,100.00
2022-12-03T23:41:11.264Z,100.00
2022-12-03T23:43:38.125Z,100.00
2022-12-03T23:46:07.196Z,100.00
2022-12-03T23:48:33.625Z,100.00
2022-12-03T23:51:04.087Z,100.00
2022-12-03T23:53:30.753Z,100.00
2022-12-03T23:55:57.064Z,100.00
2022-12-03T23:58:23.341Z,100.00
